Terminal Aerodrome Forecast
Issued by NWS

Home | Current Version | Previous Version | Text Only | Print | Product List | Glossary On
Versions: 1 2 3 4 5 6 7 8 9 10 11 12
387
FTUS46 KSEW 031120
TAFBFI
TAF
KBFI 031120Z 0312/0412 13007KT P6SM SCT130
     FM031800 23006KT P6SM SCT110 BKN220
     FM040000 23008KT P6SM VCSH BKN050 OVC110
      TEMPO 0402/0406 32006KT
     FM040600 33006KT P6SM VCSH BKN040 OVC080=

USA.gov is the U.S. government's official web portal to all federal, state and local government web resources and services.